createdAt,value
2023-03-18T00:01:28.299Z,99.90
2023-03-18T00:03:56.192Z,99.90
2023-03-18T00:06:23.244Z,99.90
2023-03-18T00:08:50.772Z,99.90
2023-03-18T00:11:19.974Z,99.90
2023-03-18T00:13:47.997Z,99.90
2023-03-18T00:16:15.773Z,99.90
2023-03-18T00:18:42.781Z,99.90
2023-03-18T00:21:10.996Z,99.90
2023-03-18T00:23:38.923Z,99.90
2023-03-18T00:26:06.818Z,99.90
2023-03-18T00:28:33.786Z,99.90
2023-03-18T00:31:09.052Z,99.90
2023-03-18T00:33:40.651Z,99.90
2023-03-18T00:36:13.788Z,99.90
2023-03-18T00:38:42.324Z,99.90
2023-03-18T00:41:15.626Z,99.90
2023-03-18T00:43:52.508Z,99.90
2023-03-18T00:46:25.603Z,99.90
2023-03-18T00:48:55.288Z,99.90
2023-03-18T00:51:24.312Z,99.90
2023-03-18T00:53:54.006Z,99.90
2023-03-18T00:56:24.051Z,99.90
2023-03-18T00:58:52.340Z,99.90
2023-03-18T01:01:20.384Z,99.90
2023-03-18T01:03:49.512Z,99.90
2023-03-18T01:06:21.054Z,99.90
2023-03-18T01:08:47.931Z,99.90
2023-03-18T01:11:15.300Z,99.90
2023-03-18T01:13:42.498Z,99.90
2023-03-18T01:16:10.735Z,99.90
2023-03-18T01:18:39.002Z,99.90
2023-03-18T01:21:06.009Z,99.90
2023-03-18T01:23:33.102Z,99.90
2023-03-18T01:26:00.142Z,99.90
2023-03-18T01:28:30.167Z,99.90
2023-03-18T01:30:57.434Z,99.90
2023-03-18T01:33:25.788Z,99.90
2023-03-18T01:36:00.534Z,99.90
2023-03-18T01:38:30.266Z,99.90
2023-03-18T01:40:58.938Z,99.90
2023-03-18T01:43:35.729Z,99.90
2023-03-18T01:46:39.448Z,99.90
2023-03-18T01:49:20.681Z,99.90
2023-03-18T01:52:12.820Z,99.90
2023-03-18T01:54:44.471Z,99.90
2023-03-18T01:57:12.698Z,99.90
2023-03-18T01:59:42.458Z,99.90
2023-03-18T02:02:12.969Z,99.90
2023-03-18T02:04:48.251Z,99.90
2023-03-18T02:07:22.832Z,99.90
2023-03-18T02:09:51.095Z,99.90
2023-03-18T02:12:27.878Z,99.90
2023-03-18T02:14:55.385Z,99.90
2023-03-18T02:17:30.299Z,99.90
2023-03-18T02:20:12.582Z,99.90
2023-03-18T02:22:47.508Z,99.90
2023-03-18T02:25:43.290Z,99.90
2023-03-18T02:28:14.387Z,99.90
2023-03-18T02:30:48.892Z,99.90
2023-03-18T02:33:19.116Z,99.90
2023-03-18T02:35:49.902Z,99.90
2023-03-18T02:38:16.940Z,99.90
2023-03-18T02:40:43.987Z,99.90
2023-03-18T02:43:21.861Z,99.90
2023-03-18T02:46:01.337Z,99.90
2023-03-18T02:48:34.450Z,99.90
2023-03-18T02:51:01.496Z,99.90
2023-03-18T02:53:28.607Z,99.90
2023-03-18T02:55:55.361Z,99.90
2023-03-18T02:58:22.812Z,99.90
2023-03-18T03:00:49.528Z,99.90
2023-03-18T03:03:16.788Z,99.90
2023-03-18T03:05:44.095Z,99.90
2023-03-18T03:08:11.246Z,99.90
2023-03-18T03:10:38.189Z,99.90
2023-03-18T03:13:06.282Z,99.90
2023-03-18T03:15:33.768Z,99.90
2023-03-18T03:18:00.904Z,99.90
2023-03-18T03:20:28.604Z,99.90
2023-03-18T03:22:55.507Z,99.90
2023-03-18T03:25:22.733Z,99.90
2023-03-18T03:27:50.335Z,99.90
2023-03-18T03:30:17.260Z,99.90
2023-03-18T03:32:44.794Z,99.90
2023-03-18T03:35:14.577Z,99.90
2023-03-18T03:37:42.410Z,99.90
2023-03-18T03:40:12.606Z,99.90
2023-03-18T03:42:40.310Z,99.90
2023-03-18T03:45:08.163Z,99.90
2023-03-18T03:47:36.232Z,99.90
2023-03-18T03:50:03.388Z,99.90
2023-03-18T03:52:30.200Z,99.90
2023-03-18T03:54:57.530Z,99.90
2023-03-18T03:57:24.329Z,99.90
2023-03-18T03:59:51.262Z,99.90
2023-03-18T04:02:19.233Z,99.90
2023-03-18T04:04:46.417Z,99.90
2023-03-18T04:07:14.462Z,99.90
2023-03-18T04:09:42.389Z,99.90
2023-03-18T04:12:09.982Z,99.90
2023-03-18T04:14:36.976Z,99.90
2023-03-18T04:17:04.078Z,99.90
2023-03-18T04:19:31.146Z,99.90
2023-03-18T04:21:58.081Z,99.90
2023-03-18T04:24:25.087Z,99.90
2023-03-18T04:26:52.272Z,99.90
2023-03-18T04:29:19.104Z,99.90
2023-03-18T04:31:46.335Z,99.90
2023-03-18T04:34:13.657Z,99.90
2023-03-18T04:36:40.801Z,99.90
2023-03-18T04:39:09.599Z,99.90
2023-03-18T04:41:37.595Z,99.90
2023-03-18T04:44:04.560Z,99.90
2023-03-18T04:46:32.582Z,99.90
2023-03-18T04:48:59.849Z,99.90
2023-03-18T04:51:27.520Z,99.90
2023-03-18T04:53:54.581Z,99.90
2023-03-18T04:56:21.959Z,99.90
2023-03-18T04:58:49.097Z,99.90
2023-03-18T05:01:16.128Z,99.90
2023-03-18T05:03:43.612Z,99.90
2023-03-18T05:06:21.820Z,99.90
2023-03-18T05:08:49.224Z,99.90
2023-03-18T05:11:16.221Z,99.90
2023-03-18T05:13:43.407Z,99.90
2023-03-18T05:16:10.890Z,99.90
2023-03-18T05:18:38.331Z,99.90
2023-03-18T05:21:07.416Z,99.90
2023-03-18T05:23:34.487Z,99.90
2023-03-18T05:26:01.439Z,99.90
2023-03-18T05:28:28.529Z,99.90
2023-03-18T05:30:55.627Z,99.90
2023-03-18T05:33:23.419Z,99.90
2023-03-18T05:35:50.647Z,99.90
2023-03-18T05:38:18.735Z,99.90
2023-03-18T05:40:45.766Z,99.90
2023-03-18T05:43:12.996Z,99.90
2023-03-18T05:45:40.651Z,99.90
2023-03-18T05:48:07.793Z,99.90
2023-03-18T05:50:38.259Z,99.90
2023-03-18T05:53:06.178Z,99.90
2023-03-18T05:55:33.942Z,99.90
2023-03-18T05:58:03.045Z,99.90
2023-03-18T06:00:30.494Z,99.90
2023-03-18T06:02:59.274Z,99.90
2023-03-18T06:05:27.196Z,99.90
2023-03-18T06:07:54.965Z,99.90
2023-03-18T06:10:25.060Z,99.90
2023-03-18T06:12:55.339Z,99.90
2023-03-18T06:15:23.210Z,99.90
2023-03-18T06:17:50.456Z,99.90
2023-03-18T06:20:19.699Z,99.90
2023-03-18T06:22:49.706Z,99.90
2023-03-18T06:25:20.548Z,99.90
2023-03-18T06:27:48.022Z,99.90
2023-03-18T06:30:16.411Z,99.90
2023-03-18T06:32:43.823Z,99.90
2023-03-18T06:35:12.210Z,99.90
2023-03-18T06:37:40.099Z,99.90
2023-03-18T06:40:08.608Z,99.90
2023-03-18T06:42:35.894Z,99.90
2023-03-18T06:45:03.911Z,99.90
2023-03-18T06:47:31.289Z,99.90
2023-03-18T06:49:58.430Z,99.90
2023-03-18T06:52:25.466Z,99.90
2023-03-18T06:54:52.362Z,99.90
2023-03-18T06:57:20.403Z,99.90
2023-03-18T06:59:48.021Z,99.90
2023-03-18T07:02:15.465Z,99.90
2023-03-18T07:04:46.521Z,99.90
2023-03-18T07:07:13.443Z,99.90
2023-03-18T07:09:40.759Z,99.90
2023-03-18T07:12:08.243Z,99.90
2023-03-18T07:14:35.016Z,99.90
2023-03-18T07:17:04.082Z,99.90
2023-03-18T07:19:33.177Z,99.90
2023-03-18T07:22:00.622Z,99.90
2023-03-18T07:24:28.479Z,99.90
2023-03-18T07:26:55.590Z,99.90
2023-03-18T07:29:23.466Z,99.90
2023-03-18T07:31:51.166Z,99.90
2023-03-18T07:34:19.289Z,99.90
2023-03-18T07:36:46.264Z,99.90
2023-03-18T07:39:13.505Z,99.90
2023-03-18T07:41:40.268Z,99.90
2023-03-18T07:44:08.227Z,99.90
2023-03-18T07:46:36.146Z,99.90
2023-03-18T07:49:03.163Z,99.90
2023-03-18T07:51:30.502Z,99.90
2023-03-18T07:53:57.727Z,99.90
2023-03-18T07:56:27.226Z,99.90
2023-03-18T07:58:54.144Z,99.90
2023-03-18T08:01:21.188Z,99.90
2023-03-18T08:03:49.224Z,99.90
2023-03-18T08:06:20.573Z,99.90
2023-03-18T08:08:49.270Z,99.90
2023-03-18T08:11:16.303Z,99.90
2023-03-18T08:13:43.574Z,99.90
2023-03-18T08:16:10.634Z,99.90
2023-03-18T08:18:37.730Z,99.90
2023-03-18T08:21:04.921Z,99.90
2023-03-18T08:23:35.937Z,99.90
2023-03-18T08:26:04.861Z,99.90
2023-03-18T08:28:31.985Z,99.90
2023-03-18T08:30:59.460Z,99.90
2023-03-18T08:33:27.657Z,99.90
2023-03-18T08:35:56.261Z,99.90
2023-03-18T08:38:25.649Z,99.90
2023-03-18T08:40:53.693Z,99.90
2023-03-18T08:43:22.368Z,99.90
2023-03-18T08:45:53.907Z,99.90
2023-03-18T08:48:23.386Z,99.90
2023-03-18T08:50:51.536Z,99.90
2023-03-18T08:53:19.879Z,99.90
2023-03-18T08:55:47.173Z,99.90
2023-03-18T08:58:14.232Z,99.90
2023-03-18T09:00:41.811Z,99.90
2023-03-18T09:03:09.107Z,99.90
2023-03-18T09:05:38.614Z,99.90
2023-03-18T09:08:06.561Z,99.90
2023-03-18T09:10:34.232Z,99.90
2023-03-18T09:13:01.303Z,99.90
2023-03-18T09:15:28.498Z,99.90
2023-03-18T09:18:10.491Z,99.90
2023-03-18T09:20:39.283Z,99.90
2023-03-18T09:23:07.455Z,99.90
2023-03-18T09:25:35.164Z,99.90
2023-03-18T09:28:02.496Z,99.90
2023-03-18T09:30:30.177Z,99.90
2023-03-18T09:32:59.219Z,99.90
2023-03-18T09:35:29.224Z,99.90
2023-03-18T09:37:56.390Z,99.90
2023-03-18T09:40:33.555Z,99.90
2023-03-18T09:43:14.462Z,99.90
2023-03-18T09:46:20.189Z,99.90
2023-03-18T09:49:23.302Z,99.90
2023-03-18T09:52:14.026Z,99.90
2023-03-18T09:54:44.779Z,99.90
2023-03-18T09:57:44.778Z,99.90
2023-03-18T10:00:38.765Z,99.90
2023-03-18T10:03:14.949Z,99.90
2023-03-18T10:05:55.454Z,99.90
2023-03-18T10:08:41.518Z,99.90
2023-03-18T10:11:17.902Z,99.90
2023-03-18T10:13:52.722Z,99.90
2023-03-18T10:16:28.376Z,99.90
2023-03-18T10:18:57.142Z,99.90
2023-03-18T10:21:36.661Z,99.90
2023-03-18T10:24:30.569Z,99.90
2023-03-18T10:27:19.156Z,99.90
2023-03-18T10:30:06.200Z,99.90
2023-03-18T10:32:49.079Z,99.90
2023-03-18T10:35:19.901Z,99.90
2023-03-18T10:38:10.812Z,99.90
2023-03-18T10:40:45.260Z,99.90
2023-03-18T10:43:29.080Z,99.90
2023-03-18T10:46:05.065Z,99.90
2023-03-18T10:48:42.322Z,99.90
2023-03-18T10:51:32.444Z,99.90
2023-03-18T10:54:21.918Z,99.90
2023-03-18T10:56:49.038Z,99.90
2023-03-18T10:59:22.850Z,99.90
2023-03-18T11:01:58.458Z,99.90
2023-03-18T11:04:28.459Z,99.90
2023-03-18T11:07:04.081Z,99.90
2023-03-18T11:09:33.891Z,99.90
2023-03-18T11:12:37.376Z,99.90
2023-03-18T11:15:11.152Z,99.90
2023-03-18T11:17:40.662Z,99.90
2023-03-18T11:20:08.339Z,99.90
2023-03-18T11:22:37.497Z,99.90
2023-03-18T11:25:12.113Z,99.90
2023-03-18T11:27:40.462Z,99.90
2023-03-18T11:30:34.346Z,99.90
2023-03-18T11:33:10.892Z,99.90
2023-03-18T11:36:19.836Z,99.90
2023-03-18T11:38:57.309Z,99.90
2023-03-18T11:41:32.670Z,99.90
2023-03-18T11:44:06.551Z,99.90
2023-03-18T11:46:52.580Z,99.90
2023-03-18T11:49:28.633Z,99.90
2023-03-18T11:52:39.055Z,99.90
2023-03-18T11:55:26.996Z,99.90
2023-03-18T11:58:10.476Z,97.70
2023-03-18T12:01:13.526Z,97.70
2023-03-18T12:04:05.886Z,97.20
2023-03-18T12:07:05.498Z,97.00
2023-03-18T12:09:49.134Z,97.20
2023-03-18T12:12:31.869Z,96.00
2023-03-18T12:15:13.885Z,95.40
2023-03-18T12:18:02.671Z,94.20
2023-03-18T12:20:40.387Z,94.40
2023-03-18T12:23:13.151Z,94.20
2023-03-18T12:25:46.309Z,93.30
2023-03-18T12:28:21.886Z,92.60
2023-03-18T12:31:16.764Z,92.80
2023-03-18T12:33:49.522Z,93.00
2023-03-18T12:36:42.186Z,92.90
2023-03-18T12:39:24.567Z,94.70
2023-03-18T12:42:12.193Z,95.20
2023-03-18T12:45:02.097Z,94.70
2023-03-18T12:47:32.422Z,93.50
2023-03-18T12:50:25.435Z,93.60
2023-03-18T12:53:03.897Z,93.00
2023-03-18T12:55:38.224Z,93.70
2023-03-18T12:58:19.417Z,96.40
2023-03-18T13:00:57.154Z,97.60
2023-03-18T13:03:34.192Z,98.40
2023-03-18T13:06:22.271Z,98.20
2023-03-18T13:09:00.499Z,98.30
2023-03-18T13:11:40.600Z,99.20
2023-03-18T13:14:30.068Z,98.50
2023-03-18T13:16:58.472Z,98.00
2023-03-18T13:19:27.129Z,99.90
2023-03-18T13:22:24.148Z,99.90
2023-03-18T13:25:06.693Z,99.90
2023-03-18T13:27:49.536Z,99.90
2023-03-18T13:30:32.781Z,99.90
2023-03-18T13:33:21.988Z,99.90
2023-03-18T13:36:10.465Z,99.90
2023-03-18T13:38:49.186Z,99.90
2023-03-18T13:41:49.807Z,99.90
2023-03-18T13:44:27.726Z,99.90
2023-03-18T13:47:09.077Z,99.90
2023-03-18T13:49:39.514Z,99.90
2023-03-18T13:52:28.837Z,99.90
2023-03-18T13:55:04.713Z,99.90
2023-03-18T13:57:42.416Z,99.90
2023-03-18T14:00:25.377Z,99.90
2023-03-18T14:03:19.350Z,99.90
2023-03-18T14:05:47.479Z,99.90
2023-03-18T14:08:39.687Z,99.90
2023-03-18T14:11:28.561Z,99.90
2023-03-18T14:14:02.041Z,99.90
2023-03-18T14:16:30.044Z,99.90
2023-03-18T14:19:00.348Z,99.90
2023-03-18T14:21:29.756Z,99.90
2023-03-18T14:24:24.222Z,99.90
2023-03-18T14:26:59.961Z,99.90
2023-03-18T14:29:34.639Z,99.90
2023-03-18T14:32:08.326Z,99.90
2023-03-18T14:34:56.546Z,99.90
2023-03-18T14:37:30.269Z,99.90
2023-03-18T14:40:03.736Z,99.90
2023-03-18T14:42:56.759Z,99.90
2023-03-18T14:46:01.801Z,99.90
2023-03-18T14:48:33.977Z,99.90
2023-03-18T14:51:21.851Z,99.90
2023-03-18T14:54:01.399Z,99.90
2023-03-18T14:56:52.168Z,99.90
2023-03-18T14:59:19.622Z,99.90
2023-03-18T15:01:50.680Z,99.90
2023-03-18T15:04:24.884Z,99.90
2023-03-18T15:07:00.269Z,99.90
2023-03-18T15:09:29.860Z,99.90
2023-03-18T15:11:57.670Z,99.90
2023-03-18T15:14:28.028Z,99.90
2023-03-18T15:16:57.198Z,99.90
2023-03-18T15:19:27.365Z,99.90
2023-03-18T15:22:07.792Z,99.90
2023-03-18T15:24:36.529Z,99.90
2023-03-18T15:27:21.979Z,99.90
2023-03-18T15:29:53.989Z,99.90
2023-03-18T15:32:30.246Z,99.90
2023-03-18T15:35:14.983Z,99.90
2023-03-18T15:37:44.555Z,99.90
2023-03-18T15:40:29.798Z,99.90
2023-03-18T15:43:05.020Z,99.90
2023-03-18T15:45:33.636Z,99.90
2023-03-18T15:48:16.749Z,99.90
2023-03-18T15:50:55.043Z,99.90
2023-03-18T15:53:25.686Z,99.90
2023-03-18T15:56:07.404Z,99.90
2023-03-18T15:58:38.680Z,99.90
2023-03-18T16:01:08.062Z,99.90
2023-03-18T16:03:35.622Z,99.90
2023-03-18T16:06:03.557Z,99.90
2023-03-18T16:08:31.736Z,99.90
2023-03-18T16:11:04.125Z,99.90
2023-03-18T16:13:34.652Z,99.90
2023-03-18T16:16:02.406Z,99.90
2023-03-18T16:18:29.341Z,99.90
2023-03-18T16:20:57.351Z,99.90
2023-03-18T16:23:24.189Z,99.90
2023-03-18T16:25:54.478Z,99.90
2023-03-18T16:28:24.894Z,99.90
2023-03-18T16:30:53.541Z,99.90
2023-03-18T16:33:21.652Z,99.90
2023-03-18T16:35:59.497Z,99.90
2023-03-18T16:38:31.192Z,99.90
2023-03-18T16:40:59.493Z,99.90
2023-03-18T16:43:31.845Z,99.90
2023-03-18T16:46:01.246Z,99.90
2023-03-18T16:48:28.677Z,99.90
2023-03-18T16:50:57.401Z,99.90
2023-03-18T16:53:29.704Z,99.90
2023-03-18T16:56:04.418Z,99.90
2023-03-18T16:58:35.059Z,99.90
2023-03-18T17:01:04.704Z,99.90
2023-03-18T17:03:32.966Z,99.90
2023-03-18T17:06:00.112Z,99.90
2023-03-18T17:08:27.526Z,99.90
2023-03-18T17:10:58.222Z,99.90
2023-03-18T17:13:28.797Z,99.90
2023-03-18T17:15:56.059Z,99.90
2023-03-18T17:18:24.840Z,99.90
2023-03-18T17:20:52.211Z,99.90
2023-03-18T17:23:20.929Z,99.90
2023-03-18T17:25:50.954Z,99.90
2023-03-18T17:28:29.935Z,99.90
2023-03-18T17:30:56.949Z,99.90
2023-03-18T17:33:30.890Z,99.90
2023-03-18T17:36:00.274Z,99.90
2023-03-18T17:38:28.492Z,99.90
2023-03-18T17:40:55.555Z,99.90
2023-03-18T17:43:32.271Z,99.90
2023-03-18T17:46:00.627Z,99.90
2023-03-18T17:48:32.505Z,99.90
2023-03-18T17:51:02.629Z,99.90
2023-03-18T17:53:40.674Z,99.90
2023-03-18T17:56:11.500Z,99.90
2023-03-18T17:58:41.597Z,99.90
2023-03-18T18:01:14.153Z,99.90
2023-03-18T18:03:40.938Z,99.90
2023-03-18T18:06:11.754Z,99.90
2023-03-18T18:08:38.682Z,99.90
2023-03-18T18:11:44.600Z,99.90
2023-03-18T18:14:19.361Z,99.90
2023-03-18T18:16:47.793Z,99.90
2023-03-18T18:19:14.984Z,99.90
2023-03-18T18:21:43.863Z,99.90
2023-03-18T18:24:33.484Z,99.90
2023-03-18T18:27:00.639Z,99.90
2023-03-18T18:29:29.372Z,99.90
2023-03-18T18:31:57.209Z,99.90
2023-03-18T18:34:24.139Z,99.90
2023-03-18T18:36:52.362Z,99.90
2023-03-18T18:39:20.971Z,99.90
2023-03-18T18:41:48.430Z,99.90
2023-03-18T18:44:15.257Z,99.90
2023-03-18T18:46:42.292Z,99.90
2023-03-18T18:49:22.293Z,99.90
2023-03-18T18:51:50.618Z,99.90
2023-03-18T18:54:17.748Z,99.90
2023-03-18T18:56:44.991Z,99.90
2023-03-18T18:59:30.785Z,99.90
2023-03-18T19:01:57.822Z,99.90
2023-03-18T19:04:24.968Z,99.90
2023-03-18T19:06:52.436Z,99.90
2023-03-18T19:09:24.680Z,99.90
2023-03-18T19:11:53.265Z,99.90
2023-03-18T19:14:25.814Z,99.90
2023-03-18T19:16:54.052Z,99.90
2023-03-18T19:19:25.364Z,99.90
2023-03-18T19:21:52.223Z,99.90
2023-03-18T19:24:26.971Z,99.90
2023-03-18T19:26:56.854Z,99.90
2023-03-18T19:29:24.426Z,99.90
2023-03-18T19:31:51.662Z,99.90
2023-03-18T19:34:20.825Z,99.90
2023-03-18T19:36:49.601Z,99.90
2023-03-18T19:39:18.888Z,99.90
2023-03-18T19:41:49.377Z,99.90
2023-03-18T19:44:22.904Z,99.90
2023-03-18T19:46:52.856Z,99.90
2023-03-18T19:49:40.893Z,99.90
2023-03-18T19:52:25.805Z,99.90
2023-03-18T19:54:55.111Z,99.90
2023-03-18T19:57:31.677Z,99.90
2023-03-18T20:00:00.621Z,99.90
2023-03-18T20:02:31.927Z,99.90
2023-03-18T20:05:01.093Z,99.90
2023-03-18T20:07:30.274Z,99.90
2023-03-18T20:09:57.396Z,99.90
2023-03-18T20:12:37.488Z,99.90
2023-03-18T20:15:07.719Z,99.90
2023-03-18T20:17:34.460Z,99.90
2023-03-18T20:20:01.767Z,99.90
2023-03-18T20:22:36.493Z,99.90
2023-03-18T20:25:05.577Z,99.90
2023-03-18T20:27:32.609Z,99.90
2023-03-18T20:29:59.692Z,99.90
2023-03-18T20:32:27.000Z,99.90
2023-03-18T20:34:54.051Z,99.90
2023-03-18T20:37:34.413Z,99.90
2023-03-18T20:40:02.852Z,99.90
2023-03-18T20:42:30.208Z,99.90
2023-03-18T20:44:58.270Z,99.90
2023-03-18T20:47:25.414Z,99.90
2023-03-18T20:49:52.494Z,99.90
2023-03-18T20:52:29.844Z,99.90
2023-03-18T20:54:57.230Z,99.90
2023-03-18T20:57:25.266Z,99.90
2023-03-18T20:59:52.612Z,99.90
2023-03-18T21:02:31.806Z,99.90
2023-03-18T21:05:00.361Z,99.90
2023-03-18T21:07:28.308Z,99.90
2023-03-18T21:09:55.679Z,99.90
2023-03-18T21:12:24.196Z,99.90
2023-03-18T21:14:51.140Z,99.90
2023-03-18T21:17:23.768Z,99.90
2023-03-18T21:19:52.292Z,99.90
2023-03-18T21:22:27.362Z,99.90
2023-03-18T21:24:55.316Z,99.90
2023-03-18T21:27:26.763Z,99.90
2023-03-18T21:29:55.442Z,99.90
2023-03-18T21:32:27.404Z,99.90
2023-03-18T21:34:55.626Z,99.90
2023-03-18T21:37:24.685Z,99.90
2023-03-18T21:39:51.589Z,99.90
2023-03-18T21:42:23.936Z,99.90
2023-03-18T21:44:51.685Z,99.90
2023-03-18T21:47:21.626Z,99.90
2023-03-18T21:49:49.146Z,99.90
2023-03-18T21:52:18.576Z,99.90
2023-03-18T21:54:46.856Z,99.90
2023-03-18T21:57:22.165Z,99.90
2023-03-18T21:59:50.890Z,99.90
2023-03-18T22:02:31.513Z,99.90
2023-03-18T22:05:07.712Z,99.90
2023-03-18T22:07:34.487Z,99.90
2023-03-18T22:10:01.834Z,99.90
2023-03-18T22:12:33.871Z,99.90
2023-03-18T22:15:01.191Z,99.90
2023-03-18T22:17:32.791Z,99.90
2023-03-18T22:20:01.455Z,99.90
2023-03-18T22:22:34.226Z,99.90
2023-03-18T22:25:01.211Z,99.90
2023-03-18T22:27:29.879Z,99.90
2023-03-18T22:29:59.149Z,99.90
2023-03-18T22:32:43.429Z,99.90
2023-03-18T22:35:19.641Z,99.90
2023-03-18T22:37:47.140Z,99.90
2023-03-18T22:40:18.923Z,99.90
2023-03-18T22:42:48.192Z,99.90
2023-03-18T22:45:35.596Z,99.90
2023-03-18T22:48:04.269Z,99.90
2023-03-18T22:50:34.114Z,99.90
2023-03-18T22:53:02.310Z,99.90
2023-03-18T22:55:36.021Z,99.90
2023-03-18T22:58:03.666Z,99.90
2023-03-18T23:00:40.997Z,99.90
2023-03-18T23:03:21.200Z,99.90
2023-03-18T23:05:50.411Z,99.90
2023-03-18T23:08:19.247Z,99.90
2023-03-18T23:10:47.651Z,99.90
2023-03-18T23:13:25.987Z,99.90
2023-03-18T23:15:53.563Z,99.90
2023-03-18T23:18:21.223Z,99.90
2023-03-18T23:20:50.389Z,99.90
2023-03-18T23:23:18.178Z,99.90
2023-03-18T23:25:46.158Z,99.90
2023-03-18T23:28:13.883Z,99.90
2023-03-18T23:30:42.844Z,99.90
2023-03-18T23:33:10.794Z,99.90
2023-03-18T23:35:38.448Z,99.90
2023-03-18T23:38:06.518Z,99.90
2023-03-18T23:40:33.837Z,99.90
2023-03-18T23:43:00.779Z,99.90
2023-03-18T23:45:28.154Z,99.90
2023-03-18T23:47:56.808Z,99.90
2023-03-18T23:50:24.328Z,99.90
2023-03-18T23:52:51.441Z,99.90
2023-03-18T23:55:33.589Z,99.90
2023-03-18T23:58:01.903Z,99.90
